Time;durP1;ratioP1;P1;durP2;ratioP2;P2;SDS_P1;SDS_P2;PMS_P1;PMS_P2;Temp;Humidity;BMP_temperature;BMP_pressure;BME280_temperature;BME280_humidity;BME280_pressure;Samples;Min_cycle;Max_cycle;Signal;HPM_P1;HPM_P2
2021/08/24 00:00:36;;;;;;;7.03;5.25;;;;;;;20.80;56.45;98851.94;5095046;28;20024;-50
2021/08/24 00:03:02;;;;;;;6.32;3.35;;;;;;;20.83;56.33;98847.97;5113286;28;20031;-49
2021/08/24 00:05:31;;;;;;;5.20;4.70;;;;;;;20.83;56.38;98848.75;5113310;28;20396;-49
2021/08/24 00:07:57;;;;;;;6.75;3.92;;;;;;;20.79;56.52;98850.34;5113297;28;20065;-49
2021/08/24 00:10:48;;;;;;;4.32;3.80;;;;;;;20.78;56.78;98843.38;5094913;28;20031;-49
2021/08/24 00:13:15;;;;;;;6.07;3.83;;;;;;;20.85;56.66;98841.28;5101607;28;20047;-49
2021/08/24 00:15:42;;;;;;;13.50;4.00;;;;;;;20.88;56.50;98853.28;5113040;28;20620;-49
2021/08/24 00:18:09;;;;;;;21.17;18.38;;;;;;;20.98;56.78;98844.50;5112582;28;20020;-50
2021/08/24 00:20:37;;;;;;;11.60;6.00;;;;;;;21.00;56.27;98850.38;5113024;28;20107;-49
2021/08/24 00:23:07;;;;;;;4.78;3.20;;;;;;;21.06;56.24;98844.78;5112874;28;20107;-49
2021/08/24 00:25:33;;;;;;;7.32;6.20;;;;;;;21.18;56.17;98844.53;5094637;28;20118;-50
2021/08/24 00:27:59;;;;;;;9.07;4.20;;;;;;;21.37;55.50;98844.81;5112858;28;20115;-49
2021/08/24 00:30:25;;;;;;;7.30;5.22;;;;;;;21.45;55.47;98846.97;5112831;28;20548;-50
2021/08/24 00:32:51;;;;;;;7.00;4.45;;;;;;;21.53;55.17;98848.28;5112760;28;20107;-49
2021/08/24 00:35:16;;;;;;;8.57;4.10;;;;;;;21.69;54.79;98839.22;5112741;28;20015;-50
2021/08/24 00:37:42;;;;;;;6.57;3.67;;;;;;;21.84;54.23;98841.03;5112776;28;20374;-49
2021/08/24 00:40:10;;;;;;;6.53;3.63;;;;;;;21.86;54.19;98841.56;5112682;28;20438;-49
2021/08/24 00:42:37;;;;;;;4.75;3.30;;;;;;;21.87;54.35;98840.53;5094270;28;20397;-50
2021/08/24 00:45:05;;;;;;;5.75;3.28;;;;;;;21.92;53.80;98842.38;5112550;28;20027;-50
2021/08/24 00:47:31;;;;;;;7.15;3.88;;;;;;;22.06;53.59;98832.72;5112560;28;20098;-49
2021/08/24 00:50:05;;;;;;;11.88;7.22;;;;;;;22.27;53.04;98832.66;5112522;28;20024;-49
2021/08/24 00:52:31;;;;;;;5.75;3.67;;;;;;;22.30;52.79;98840.94;5112605;28;20032;-49
2021/08/24 00:54:57;;;;;;;9.00;3.42;;;;;;;22.33;52.73;98839.59;5094126;28;20080;-49
2021/08/24 00:57:25;;;;;;;15.10;13.52;;;;;;;22.26;53.08;98839.09;5094137;28;20015;-49
2021/08/24 00:59:52;;;;;;;5.03;4.13;;;;;;;22.31;52.92;98845.22;5094130;28;20027;-49
2021/08/24 01:02:20;;;;;;;7.72;3.53;;;;;;;22.45;52.62;98842.75;5112119;28;20098;-50
2021/08/24 01:04:49;;;;;;;5.88;4.38;;;;;;;22.41;52.40;98836.34;5093924;28;20080;-49
2021/08/24 01:07:35;;;;;;;13.45;7.63;;;;;;;22.29;52.42;98844.69;5112266;28;20444;-49
2021/08/24 01:10:10;;;;;;;5.60;3.45;;;;;;;22.29;52.37;98841.22;5112314;28;20084;-50
2021/08/24 01:13:05;;;;;;;4.13;3.58;;;;;;;22.16;52.82;98845.25;5112059;28;20127;-49
2021/08/24 01:16:03;;;;;;;13.50;8.77;;;;;;;22.08;52.97;98843.94;5112257;28;20482;-49
2021/08/24 01:18:47;;;;;;;7.18;3.80;;;;;;;22.00;52.88;98852.50;5112278;28;20356;-49
2021/08/24 01:21:57;;;;;;;7.60;4.07;;;;;;;21.55;54.09;98848.84;5112120;28;20028;-49
2021/08/24 01:24:39;;;;;;;9.15;3.85;;;;;;;21.44;54.92;98842.69;5094251;28;20040;-49
2021/08/24 01:27:12;;;;;;;6.72;3.47;;;;;;;21.78;54.02;98842.13;5112107;28;20096;-49
2021/08/24 01:29:53;;;;;;;9.25;3.95;;;;;;;21.79;54.30;98843.72;5114643;28;20528;-49
2021/08/24 01:32:37;;;;;;;15.35;11.10;;;;;;;21.91;53.56;98844.25;5116308;28;20513;-49
2021/08/24 01:35:24;;;;;;;8.27;3.78;;;;;;;21.99;53.57;98842.09;5114909;28;20420;-49
2021/08/24 01:38:04;;;;;;;12.90;4.70;;;;;;;21.84;53.71;98835.72;5116287;28;20020;-50
2021/08/24 01:40:49;;;;;;;5.90;3.92;;;;;;;21.81;53.73;98841.59;5116174;28;20542;-49
2021/08/24 01:43:24;;;;;;;7.05;4.40;;;;;;;21.84;53.69;98845.59;5097766;28;20027;-50
2021/08/24 01:45:59;;;;;;;6.82;3.72;;;;;;;21.88;53.74;98841.31;5097789;28;20118;-49
2021/08/24 01:48:32;;;;;;;7.25;4.25;;;;;;;21.97;53.46;98844.22;5115999;28;20405;-49
2021/08/24 01:51:05;;;;;;;5.57;3.50;;;;;;;22.14;53.18;98844.72;5115950;28;20460;-49
2021/08/24 01:53:41;;;;;;;4.03;3.50;;;;;;;22.36;52.34;98838.25;5115972;28;20378;-49
2021/08/24 01:56:17;;;;;;;11.13;6.68;;;;;;;22.08;52.77;98843.94;5115831;28;20032;-49
2021/08/24 01:59:08;;;;;;;5.80;3.67;;;;;;;21.68;53.65;98837.59;5115870;28;20030;-49
2021/08/24 02:01:49;;;;;;;8.65;4.60;;;;;;;21.61;54.39;98842.44;5111474;28;20035;-49
2021/08/24 02:04:24;;;;;;;4.43;3.35;;;;;;;21.93;53.48;98843.97;5115692;28;20035;-49
2021/08/24 02:06:50;;;;;;;4.63;3.55;;;;;;;21.88;52.94;98844.00;5115726;28;20023;-49
2021/08/24 02:09:23;;;;;;;7.30;3.70;;;;;;;21.65;53.39;98834.66;5115518;28;20083;-49
2021/08/24 02:11:52;;;;;;;51.55;46.40;;;;;;;21.37;54.47;98836.81;5115421;28;20075;-49
2021/08/24 02:14:18;;;;;;;6.03;5.43;;;;;;;21.15;55.13;98839.75;5115567;28;20027;-49
2021/08/24 02:16:47;;;;;;;4.80;3.63;;;;;;;20.98;55.34;98841.84;5097156;28;20377;-49
2021/08/24 02:19:24;;;;;;;9.48;5.57;;;;;;;20.73;56.05;98838.84;5115409;28;20145;-49
2021/08/24 02:21:54;;;;;;;7.70;4.15;;;;;;;20.57;56.77;98839.84;5096994;28;20122;-49
2021/08/24 02:24:27;;;;;;;6.25;5.63;;;;;;;20.48;57.16;98836.06;5097068;28;20087;-48
2021/08/24 02:26:56;;;;;;;6.43;3.92;;;;;;;20.46;57.34;98832.88;5096989;28;20042;-49
2021/08/24 02:29:22;;;;;;;6.90;4.43;;;;;;;20.45;57.37;98836.63;5096895;28;20527;-49
2021/08/24 02:31:59;;;;;;;6.38;5.78;;;;;;;20.36;57.75;98833.63;5115229;28;20027;-49
2021/08/24 02:34:32;;;;;;;8.65;5.80;;;;;;;20.22;58.33;98840.50;5115212;28;20061;-49
2021/08/24 02:37:07;;;;;;;5.05;4.13;;;;;;;20.18;58.25;98828.75;5115037;28;20493;-49
2021/08/24 02:39:51;;;;;;;9.80;4.90;;;;;;;20.26;58.51;98831.75;5114507;28;20485;-49
2021/08/24 02:42:23;;;;;;;6.85;3.50;;;;;;;20.32;58.10;98828.03;5096657;28;20489;-49
2021/08/24 02:45:04;;;;;;;36.38;33.28;;;;;;;20.51;57.75;98822.22;5096672;28;20024;-49
2021/08/24 02:47:33;;;;;;;9.63;5.40;;;;;;;20.54;57.69;98816.38;5114945;28;20031;-49
2021/08/24 02:50:00;;;;;;;8.68;6.20;;;;;;;20.54;58.03;98816.38;5096500;28;20020;-49
2021/08/24 02:52:26;;;;;;;5.13;4.68;;;;;;;20.59;57.55;98821.75;5114734;28;20035;-49
2021/08/24 02:54:53;;;;;;;9.98;6.55;;;;;;;20.33;58.20;98807.50;5114712;28;20106;-49
2021/08/24 02:57:19;;;;;;;9.77;4.43;;;;;;;20.27;58.97;98813.88;5114641;28;20053;-49
2021/08/24 02:59:44;;;;;;;5.28;3.95;;;;;;;20.47;58.68;98813.94;5114680;28;20030;-48
2021/08/24 03:02:12;;;;;;;9.85;7.65;;;;;;;20.53;58.06;98809.44;5096178;28;20028;-49
2021/08/24 03:04:38;;;;;;;9.55;4.35;;;;;;;20.54;58.18;98809.19;5114534;28;20106;-49
2021/08/24 03:07:15;;;;;;;12.82;7.22;;;;;;;20.55;57.93;98807.31;5096125;28;20458;-49
2021/08/24 03:09:43;;;;;;;13.57;12.38;;;;;;;20.54;57.55;98806.53;5114543;28;20073;-49
2021/08/24 03:12:34;;;;;;;7.60;6.95;;;;;;;20.24;58.31;98809.06;5114108;28;20036;-49
2021/08/24 03:15:18;;;;;;;6.13;5.43;;;;;;;20.12;58.91;98807.44;5072656;28;20044;-49
2021/08/24 03:17:54;;;;;;;9.50;8.50;;;;;;;20.11;58.90;98803.16;5114286;28;20055;-49
2021/08/24 03:20:27;;;;;;;20.52;9.45;;;;;;;20.12;58.99;98811.94;5114327;28;20023;-49
2021/08/24 03:22:54;;;;;;;19.90;10.27;;;;;;;20.06;59.21;98816.47;5114074;28;20016;-49
2021/08/24 03:25:20;;;;;;;28.25;6.55;;;;;;;20.14;59.20;98815.97;5114138;28;20024;-49
2021/08/24 03:27:51;;;;;;;17.65;5.50;;;;;;;20.08;58.96;98809.00;5114078;28;20019;-49
2021/08/24 03:30:18;;;;;;;31.92;13.70;;;;;;;20.06;58.88;98816.47;5095714;28;20042;-49
2021/08/24 03:32:45;;;;;;;18.42;6.22;;;;;;;20.05;59.11;98816.72;5113975;28;20028;-49
2021/08/24 03:35:13;;;;;;;21.73;6.13;;;;;;;20.02;59.07;98812.72;5095895;28;20164;-49
2021/08/24 03:37:39;;;;;;;22.25;6.32;;;;;;;20.02;59.09;98809.22;5095636;28;20030;-49
2021/08/24 03:40:07;;;;;;;14.18;5.13;;;;;;;20.01;59.18;98804.97;5113782;28;20024;-49
2021/08/24 03:42:36;;;;;;;14.95;5.43;;;;;;;20.00;59.11;98809.50;5113738;28;20015;-49
2021/08/24 03:45:02;;;;;;;53.08;20.35;;;;;;;19.99;59.04;98815.88;5113733;28;20137;-49
2021/08/24 03:47:28;;;;;;;16.48;4.95;;;;;;;19.95;59.09;98810.25;5113693;28;20057;-49
2021/08/24 03:49:53;;;;;;;24.38;18.15;;;;;;;19.87;59.41;98812.63;5095323;28;20023;-49
2021/08/24 03:52:19;;;;;;;15.23;6.00;;;;;;;19.88;59.56;98814.22;5112735;28;20477;-49
2021/08/24 03:54:45;;;;;;;15.57;5.75;;;;;;;19.89;59.42;98807.84;5113533;28;20454;-48
2021/08/24 03:57:10;;;;;;;16.58;10.30;;;;;;;19.89;59.47;98813.16;5113500;28;20543;-49
2021/08/24 03:59:36;;;;;;;11.98;5.95;;;;;;;19.88;59.47;98808.88;5113477;28;20061;-49
2021/08/24 04:02:04;;;;;;;16.33;9.63;;;;;;;19.83;59.53;98807.00;5113301;28;20432;-49
2021/08/24 04:04:30;;;;;;;12.95;5.78;;;;;;;19.84;59.43;98815.78;5095063;28;20096;-49
2021/08/24 04:06:56;;;;;;;13.27;5.03;;;;;;;19.71;59.81;98812.53;5095124;28;20015;-48
2021/08/24 04:09:21;;;;;;;12.35;7.60;;;;;;;19.66;59.99;98812.47;5113225;28;20019;-49
2021/08/24 04:11:47;;;;;;;13.70;4.57;;;;;;;19.71;60.01;98814.38;5112947;28;20048;-49
2021/08/24 04:14:16;;;;;;;6.53;4.57;;;;;;;19.74;59.83;98817.34;5113200;28;20066;-49
2021/08/24 04:16:41;;;;;;;10.30;4.50;;;;;;;19.58;59.92;98822.78;5113099;28;20142;-48
2021/08/24 04:19:11;;;;;;;9.93;5.35;;;;;;;19.49;60.32;98823.25;5094841;28;20583;-48
2021/08/24 04:21:42;;;;;;;7.68;4.53;;;;;;;19.38;60.85;98816.28;5094618;28;20111;-49
2021/08/24 04:24:09;;;;;;;20.77;6.57;;;;;;;19.50;61.11;98811.56;5113040;28;20024;-49
2021/08/24 04:26:35;;;;;;;14.13;5.97;;;;;;;19.75;60.22;98810.94;5112999;28;20392;-49
2021/08/24 04:29:01;;;;;;;10.50;5.07;;;;;;;19.70;59.99;98816.22;5094565;28;20072;-49
2021/08/24 04:31:30;;;;;;;17.98;16.17;;;;;;;19.61;60.07;98814.28;5112878;28;20036;-49
2021/08/24 04:33:58;;;;;;;10.55;7.20;;;;;;;19.46;60.58;98807.81;5112840;28;20031;-48
2021/08/24 04:36:24;;;;;;;11.48;6.20;;;;;;;19.39;60.66;98812.53;5094450;28;20019;-48
2021/08/24 04:38:50;;;;;;;9.23;4.88;;;;;;;19.34;60.88;98818.63;5112659;28;20023;-48
2021/08/24 04:41:16;;;;;;;16.13;5.15;;;;;;;19.22;60.92;98811.88;5094285;28;20034;-48
2021/08/24 04:43:42;;;;;;;20.23;5.60;;;;;;;19.18;61.29;98816.13;5112636;28;20103;-49
2021/08/24 04:46:07;;;;;;;17.90;9.57;;;;;;;19.21;61.37;98813.72;5112576;28;20108;-48
2021/08/24 04:48:33;;;;;;;9.93;4.95;;;;;;;19.21;61.25;98813.72;5112606;28;20140;-49
2021/08/24 04:51:00;;;;;;;11.07;4.45;;;;;;;19.17;61.15;98812.63;5112813;28;20460;-49
2021/08/24 04:53:26;;;;;;;9.15;4.97;;;;;;;19.14;61.34;98818.47;5112491;28;20475;-48
2021/08/24 04:55:53;;;;;;;6.35;5.25;;;;;;;19.03;61.63;98822.06;5094116;28;20122;-48
2021/08/24 04:58:19;;;;;;;15.07;9.23;;;;;;;19.06;61.65;98814.41;5112477;28;20572;-49
2021/08/24 05:00:44;;;;;;;8.32;5.88;;;;;;;19.27;61.53;98823.34;5112372;28;20107;-49
2021/08/24 05:03:10;;;;;;;7.95;3.83;;;;;;;19.32;61.26;98812.75;5093738;28;20024;-48
2021/08/24 05:05:36;;;;;;;9.13;5.18;;;;;;;19.33;61.11;98810.91;5094001;28;20047;-49
2021/08/24 05:08:01;;;;;;;9.00;4.70;;;;;;;19.33;61.38;98813.56;5093967;28;20114;-48
2021/08/24 05:10:28;;;;;;;8.05;4.68;;;;;;;19.34;61.23;98815.97;5112223;28;20030;-49
2021/08/24 05:12:54;;;;;;;11.00;4.63;;;;;;;19.33;61.20;98816.22;5112268;28;20036;-48
2021/08/24 05:15:20;;;;;;;8.30;5.97;;;;;;;19.41;61.20;98805.09;5112214;28;20482;-49
2021/08/24 05:17:49;;;;;;;6.95;4.30;;;;;;;19.46;61.57;98815.78;5093945;28;20032;-49
2021/08/24 05:20:17;;;;;;;5.45;4.05;;;;;;;19.56;60.67;98815.06;5112169;28;20081;-49
2021/08/24 05:22:44;;;;;;;8.25;4.75;;;;;;;19.62;60.42;98819.38;5112092;28;20023;-49
2021/08/24 05:25:12;;;;;;;9.48;4.53;;;;;;;19.84;60.26;98824.59;5112142;28;20108;-49
2021/08/24 05:27:41;;;;;;;13.02;7.43;;;;;;;20.52;59.23;98819.31;5077017;28;20019;-49
2021/08/24 05:30:10;;;;;;;8.40;5.80;;;;;;;20.91;57.44;98828.75;5093773;28;20022;-49
2021/08/24 05:32:36;;;;;;;47.63;40.83;;;;;;;20.74;57.27;98827.13;5112087;28;20030;-49
2021/08/24 05:35:02;;;;;;;84.90;73.32;;;;;;;20.62;57.91;98823.09;5112017;28;20030;-49
2021/08/24 05:37:28;;;;;;;38.08;26.08;;;;;;;20.94;56.90;98825.56;5111927;28;20028;-49
2021/08/24 05:39:54;;;;;;;23.58;18.27;;;;;;;21.37;56.09;98818.13;5112007;28;20421;-49
2021/08/24 05:42:19;;;;;;;21.35;10.02;;;;;;;21.56;55.19;98823.72;5111867;28;20469;-49
2021/08/24 05:44:45;;;;;;;12.45;5.60;;;;;;;21.67;54.85;98817.31;5111943;28;20118;-49
2021/08/24 05:47:11;;;;;;;12.50;9.65;;;;;;;21.98;54.07;98813.78;5093797;28;20048;-49
2021/08/24 05:49:37;;;;;;;8.80;8.00;;;;;;;22.30;53.33;98816.88;5111891;28;20023;-49
2021/08/24 05:52:03;;;;;;;19.92;18.05;;;;;;;22.67;52.20;98820.97;5111936;28;20515;-49
2021/08/24 05:54:29;;;;;;;19.38;17.77;;;;;;;22.96;51.66;98806.88;5111888;28;20070;-49
2021/08/24 05:56:55;;;;;;;7.65;4.22;;;;;;;23.28;50.79;98817.13;5093566;28;20035;-49
2021/08/24 05:59:24;;;;;;;4.53;3.45;;;;;;;23.39;49.96;98815.13;5111882;28;20435;-49
2021/08/24 06:01:49;;;;;;;9.55;4.40;;;;;;;23.13;50.00;98814.53;5111752;28;20054;-49
2021/08/24 06:04:15;;;;;;;14.90;11.68;;;;;;;22.71;50.77;98818.53;5111761;28;20020;-49
2021/08/24 06:06:43;;;;;;;8.98;4.15;;;;;;;22.39;51.85;98827.00;5110409;28;20038;-49
2021/08/24 06:09:12;;;;;;;13.65;5.05;;;;;;;22.28;52.35;98829.72;5111749;28;20027;-49
2021/08/24 06:11:42;;;;;;;35.80;25.90;;;;;;;22.26;52.14;98828.41;5111402;28;20048;-48
2021/08/24 06:14:09;;;;;;;517.55;414.75;;;;;;;22.31;52.28;98831.03;5094200;28;20066;-49
2021/08/24 06:16:39;;;;;;;222.32;200.60;;;;;;;22.42;51.73;98834.50;5115420;28;20052;-49
2021/08/24 06:19:09;;;;;;;19.50;13.68;;;;;;;22.30;51.76;98826.78;5115459;28;20508;-49
2021/08/24 06:21:36;;;;;;;27.98;24.08;;;;;;;22.14;52.46;98834.03;5115303;28;20032;-48
2021/08/24 06:24:03;;;;;;;14.13;5.45;;;;;;;21.83;52.76;98842.13;5115349;28;20023;-48
2021/08/24 06:26:29;;;;;;;11.88;4.60;;;;;;;21.60;53.81;98837.34;5115297;28;20015;-49
2021/08/24 06:28:55;;;;;;;23.38;9.70;;;;;;;21.56;54.26;98838.97;5115219;28;20423;-48
2021/08/24 06:31:25;;;;;;;20.15;16.85;;;;;;;21.78;53.80;98838.66;5115219;28;20076;-49
2021/08/24 06:33:53;;;;;;;31.95;28.55;;;;;;;22.05;53.11;98841.78;5115478;28;20564;-49
2021/08/24 06:36:20;;;;;;;32.33;18.23;;;;;;;22.33;52.45;98828.91;5115120;28;20061;-48
2021/08/24 06:38:47;;;;;;;13.60;5.38;;;;;;;22.47;51.91;98826.44;5115082;28;20023;-49
2021/08/24 06:41:14;;;;;;;11.88;6.40;;;;;;;22.61;51.28;98834.66;5096621;28;20035;-49
2021/08/24 06:43:39;;;;;;;17.50;5.15;;;;;;;22.68;50.83;98827.94;5114986;28;20024;-49
2021/08/24 06:46:06;;;;;;;12.45;4.10;;;;;;;22.66;50.73;98831.97;5114947;28;20073;-49
2021/08/24 06:48:31;;;;;;;13.57;6.35;;;;;;;22.37;51.66;98835.28;5114872;28;20115;-49
2021/08/24 06:50:57;;;;;;;30.95;12.30;;;;;;;22.03;52.47;98841.25;5114844;28;20110;-49
2021/08/24 06:53:23;;;;;;;14.27;6.53;;;;;;;22.02;52.84;98842.34;5114799;28;20388;-49
2021/08/24 06:55:49;;;;;;;12.00;4.25;;;;;;;22.09;52.27;98842.88;5114678;28;20087;-49
2021/08/24 06:58:17;;;;;;;6.20;4.07;;;;;;;22.07;52.15;98844.19;5114686;28;20103;-49
2021/08/24 07:00:46;;;;;;;6.63;4.38;;;;;;;22.02;52.13;98847.69;5114638;28;20011;-49
2021/08/24 07:03:13;;;;;;;8.82;5.25;;;;;;;21.93;52.26;98846.63;5114517;28;20028;-49
2021/08/24 07:05:44;;;;;;;11.25;4.82;;;;;;;21.98;52.55;98849.31;5114560;28;20020;-48
2021/08/24 07:08:11;;;;;;;14.00;4.05;;;;;;;21.98;52.18;98841.28;5114616;28;20034;-49
2021/08/24 07:10:38;;;;;;;10.80;5.07;;;;;;;21.93;52.61;98841.28;5095837;28;20019;-49
2021/08/24 07:13:04;;;;;;;24.88;6.32;;;;;;;21.96;53.14;98843.44;5114482;28;20035;-49
2021/08/24 07:15:31;;;;;;;27.55;7.00;;;;;;;22.30;52.21;98835.59;5114377;28;20397;-50
2021/08/24 07:17:57;;;;;;;27.92;10.85;;;;;;;22.61;51.56;98827.44;5114411;28;20048;-50
2021/08/24 07:20:24;;;;;;;42.38;7.25;;;;;;;23.00;50.33;98831.19;5114271;28;20514;-49
2021/08/24 07:22:50;;;;;;;6.65;3.45;;;;;;;23.05;49.85;98836.56;5114197;28;20016;-49
2021/08/24 07:25:21;;;;;;;21.33;12.75;;;;;;;22.84;50.23;98834.00;5095778;28;20023;-49
2021/08/24 07:27:48;;;;;;;20.17;4.82;;;;;;;22.86;50.28;98842.53;5112844;28;20054;-49
2021/08/24 07:30:17;;;;;;;8.38;3.80;;;;;;;22.91;49.79;98845.19;5114078;28;20022;-49
2021/08/24 07:32:46;;;;;;;11.32;4.68;;;;;;;22.94;49.98;98847.31;5114021;28;20106;-49
2021/08/24 07:35:12;;;;;;;15.93;5.28;;;;;;;22.97;49.57;98850.50;5095669;28;20437;-49
2021/08/24 07:37:38;;;;;;;26.02;11.68;;;;;;;22.99;50.03;98848.34;5114216;28;20031;-49
2021/08/24 07:40:07;;;;;;;27.35;7.00;;;;;;;22.84;50.14;98849.22;5113885;28;20080;-49
2021/08/24 07:42:32;;;;;;;20.58;8.43;;;;;;;22.59;50.86;98845.63;5113789;28;20015;-49
2021/08/24 07:44:58;;;;;;;30.50;7.07;;;;;;;22.47;50.81;98850.50;5113788;28;20362;-49
2021/08/24 07:47:24;;;;;;;16.50;4.88;;;;;;;22.59;51.11;98847.50;5113741;28;20407;-49
2021/08/24 07:49:51;;;;;;;16.10;4.75;;;;;;;22.89;50.58;98844.66;5113687;28;20026;-49
2021/08/24 07:52:19;;;;;;;16.45;4.35;;;;;;;23.07;49.91;98855.81;5113564;28;20026;-49
2021/08/24 07:54:45;;;;;;;11.20;3.88;;;;;;;23.07;49.92;98843.22;5113623;28;20023;-49
2021/08/24 07:57:11;;;;;;;11.48;4.05;;;;;;;23.03;49.74;98852.09;5113534;28;20484;-49
2021/08/24 07:59:37;;;;;;;15.40;4.38;;;;;;;23.06;49.69;98857.72;5113458;28;20023;-49
2021/08/24 08:02:03;;;;;;;13.23;3.90;;;;;;;23.11;49.33;98846.94;5113384;28;20107;-49
2021/08/24 08:04:29;;;;;;;11.40;3.90;;;;;;;23.32;48.73;98852.97;5113362;28;20028;-49
2021/08/24 08:06:55;;;;;;;11.50;3.13;;;;;;;23.51;48.37;98841.56;5113346;28;20580;-49
2021/08/24 08:09:21;;;;;;;7.30;3.22;;;;;;;23.71;47.91;98841.38;5113355;28;20027;-49
2021/08/24 08:11:49;;;;;;;10.65;4.10;;;;;;;23.92;47.61;98844.69;5094648;28;20130;-49
2021/08/24 08:14:15;;;;;;;30.55;4.53;;;;;;;24.08;47.45;98845.28;5113218;28;20019;-49
2021/08/24 08:16:41;;;;;;;9.48;3.58;;;;;;;24.34;46.87;98853.06;5094808;28;20409;-49
2021/08/24 08:19:07;;;;;;;5.68;3.42;;;;;;;24.64;45.94;98843.06;5113173;28;20023;-49
2021/08/24 08:21:35;;;;;;;9.27;3.45;;;;;;;24.95;44.73;98839.94;5112957;28;20495;-49
2021/08/24 08:24:02;;;;;;;7.95;3.55;;;;;;;25.21;43.79;98840.34;5112887;28;20428;-49
2021/08/24 08:26:29;;;;;;;8.45;2.90;;;;;;;25.40;43.56;98841.13;5112910;28;20118;-49
2021/08/24 08:28:55;;;;;;;6.32;2.90;;;;;;;25.55;43.08;98853.50;5094630;28;20059;-49
2021/08/24 08:31:23;;;;;;;6.82;3.55;;;;;;;25.58;42.70;98844.88;5112871;28;20051;-49
2021/08/24 08:33:50;;;;;;;9.70;3.50;;;;;;;25.56;42.47;98849.75;5113109;28;20439;-49
2021/08/24 08:36:16;;;;;;;2.95;2.50;;;;;;;25.69;42.74;98846.25;5112786;28;20472;-49
2021/08/24 08:38:42;;;;;;;4.35;2.80;;;;;;;26.16;42.18;98843.56;5112328;28;20051;-49
2021/08/24 08:41:19;;;;;;;7.18;3.53;;;;;;;26.69;41.08;98843.00;5112640;28;20027;-49
2021/08/24 08:43:55;;;;;;;7.03;3.58;;;;;;;26.85;40.02;98846.16;5112684;28;20093;-49
2021/08/24 08:46:43;;;;;;;5.63;3.55;;;;;;;27.01;40.16;98843.13;5112751;28;20027;-49
2021/08/24 08:49:48;;;;;;;9.43;5.30;;;;;;;27.02;39.86;98839.31;5112700;28;20059;-49
2021/08/24 08:52:59;;;;;;;4.65;3.25;;;;;;;26.62;40.67;98847.22;5112573;28;20040;-49
2021/08/24 08:55:57;;;;;;;8.32;4.07;;;;;;;26.45;41.08;98845.91;5080433;28;20051;-49
2021/08/24 08:58:35;;;;;;;6.43;3.50;;;;;;;26.92;40.40;98845.72;5112483;28;20073;-49
2021/08/24 09:01:22;;;;;;;20.30;5.15;;;;;;;27.01;40.04;98848.50;5112385;28;20401;-50
2021/08/24 09:03:58;;;;;;;40.75;7.50;;;;;;;26.86;40.42;98852.34;5112437;28;20034;-49
2021/08/24 09:06:27;;;;;;;12.80;3.70;;;;;;;26.74;40.16;98849.38;5094046;28;20057;-49
2021/08/24 09:08:57;;;;;;;20.65;5.15;;;;;;;26.42;40.69;98857.31;5112343;28;20061;-48
2021/08/24 09:11:30;;;;;;;9.15;3.88;;;;;;;26.08;41.23;98855.81;5112020;28;20043;-50
2021/08/24 09:14:27;;;;;;;47.40;9.70;;;;;;;25.67;42.26;98864.56;5112343;28;20432;-49
2021/08/24 09:17:05;;;;;;;8.10;3.95;;;;;;;25.36;42.85;98863.53;5112247;28;20489;-50
2021/08/24 09:19:47;;;;;;;6.43;3.05;;;;;;;25.23;43.19;98862.34;5112200;28;20443;-49
2021/08/24 09:22:19;;;;;;;5.47;2.90;;;;;;;25.35;43.07;98867.28;5093797;28;20023;-49
2021/08/24 09:24:46;;;;;;;4.32;3.55;;;;;;;25.54;42.63;98862.66;5112264;28;20066;-49
2021/08/24 09:27:22;;;;;;;7.10;3.45;;;;;;;25.53;42.74;98871.81;5077007;28;20023;-49
2021/08/24 09:29:50;;;;;;;7.88;4.22;;;;;;;25.38;43.22;98864.03;5112155;28;20474;-49
2021/08/24 09:32:23;;;;;;;6.85;3.33;;;;;;;25.56;43.26;98855.13;5112132;28;20020;-49
2021/08/24 09:34:51;;;;;;;11.38;3.75;;;;;;;25.73;42.59;98857.22;5112131;28;20103;-49
2021/08/24 09:37:21;;;;;;;5.85;3.65;;;;;;;25.74;42.00;98856.16;5112030;28;20019;-49
2021/08/24 09:39:53;;;;;;;9.70;4.13;;;;;;;25.75;42.01;98859.63;5112036;28;20072;-49
2021/08/24 09:42:40;;;;;;;6.10;3.45;;;;;;;25.70;42.30;98858.63;5093607;28;20493;-49
2021/08/24 09:45:25;;;;;;;13.38;4.10;;;;;;;25.54;42.73;98851.94;5111997;28;20485;-49
2021/08/24 09:48:00;;;;;;;6.15;3.25;;;;;;;25.77;42.39;98849.38;5112128;28;20028;-50
2021/08/24 09:50:45;;;;;;;6.38;3.08;;;;;;;25.83;42.18;98850.88;5095634;28;20034;-49
2021/08/24 09:53:33;;;;;;;5.82;3.17;;;;;;;25.86;42.07;98847.59;5097713;28;20378;-49
2021/08/24 09:56:07;;;;;;;5.53;3.33;;;;;;;25.80;42.07;98856.84;5115996;28;20023;-49
2021/08/24 09:58:37;;;;;;;8.27;3.05;;;;;;;25.78;42.59;98850.97;5115920;28;20031;-50
2021/08/24 10:01:08;;;;;;;5.63;3.35;;;;;;;26.22;42.03;98844.22;5097358;28;20138;-49
2021/08/24 10:03:39;;;;;;;8.82;3.28;;;;;;;26.65;41.29;98841.25;5115789;28;20103;-49
2021/08/24 10:06:28;;;;;;;4.45;2.70;;;;;;;27.09;40.27;98839.69;5097482;28;20104;-49
2021/08/24 10:09:10;;;;;;;6.57;3.65;;;;;;;27.50;39.52;98838.72;5115652;28;20497;-49
2021/08/24 10:11:36;;;;;;;8.43;3.47;;;;;;;27.87;38.23;98834.03;5115353;28;20051;-48
2021/08/24 10:14:11;;;;;;;6.85;3.08;;;;;;;28.36;37.76;98828.63;5115555;28;20050;-49
2021/08/24 10:16:41;;;;;;;6.95;3.10;;;;;;;28.42;37.34;98827.34;5115501;28;20072;-49
2021/08/24 10:19:30;;;;;;;4.50;3.15;;;;;;;28.22;37.60;98834.13;5097160;28;20080;-49
2021/08/24 10:21:57;;;;;;;5.20;2.35;;;;;;;27.91;38.35;98826.09;5104295;28;20400;-49
2021/08/24 10:24:29;;;;;;;4.88;2.30;;;;;;;28.49;37.10;98830.38;5115346;28;20023;-49
2021/08/24 10:26:58;;;;;;;4.28;2.67;;;;;;;29.45;35.47;98827.69;5115335;28;20012;-49
2021/08/24 10:29:28;;;;;;;5.97;2.50;;;;;;;30.39;33.82;98833.06;5115261;28;20558;-49
2021/08/24 10:31:59;;;;;;;9.15;2.42;;;;;;;30.75;33.19;98829.00;5115510;28;20026;-49
2021/08/24 10:34:33;;;;;;;5.75;2.65;;;;;;;30.59;33.26;98830.72;5115221;28;20118;-49
2021/08/24 10:37:24;;;;;;;5.38;2.42;;;;;;;30.46;33.46;98836.06;5115195;28;20020;-50
2021/08/24 10:40:19;;;;;;;4.07;2.60;;;;;;;30.16;33.71;98834.44;5115042;28;20031;-50
2021/08/24 10:43:05;;;;;;;;;;;;;;;29.93;34.23;98834.72;5115478;28;20151;-50
2021/08/24 10:45:37;;;;;;;8.63;3.08;;;;;;;30.06;34.48;98825.59;5114942;28;20018;-50
2021/08/24 10:48:13;;;;;;;10.05;3.05;;;;;;;31.10;32.56;98823.28;5114936;28;20088;-50
2021/08/24 10:50:57;;;;;;;9.75;3.05;;;;;;;31.93;31.69;98823.34;5114940;28;20446;-50
2021/08/24 10:53:47;;;;;;;8.60;2.92;;;;;;;32.82;29.76;98822.59;5114880;28;20075;-50
2021/08/24 10:56:32;;;;;;;5.85;2.85;;;;;;;32.84;30.23;98812.97;5096455;28;20038;-50
2021/08/24 10:59:33;;;;;;;4.18;2.50;;;;;;;33.09;29.88;98818.31;5114829;28;20097;-50
2021/08/24 11:02:40;;;;;;;4.68;2.40;;;;;;;33.17;29.12;98811.94;5114218;28;20049;-50
2021/08/24 11:05:14;;;;;;;5.18;2.20;;;;;;;33.26;28.89;98813.69;5114598;28;20028;-49
2021/08/24 11:07:51;;;;;;;4.75;2.42;;;;;;;34.03;27.86;98811.38;5114607;28;20058;-50
2021/08/24 11:10:38;;;;;;;2.60;2.38;;;;;;;33.34;28.15;98807.31;5114426;28;20046;-50
2021/08/24 11:13:24;;;;;;;3.63;2.22;;;;;;;32.38;29.08;98806.16;5096178;28;20042;-50
2021/08/24 11:15:52;;;;;;;5.72;2.60;;;;;;;31.66;30.14;98809.34;5114435;28;20035;-50
2021/08/24 11:18:43;;;;;;;2.60;2.20;;;;;;;31.35;30.86;98807.09;5114279;28;20500;-50
2021/08/24 11:21:30;;;;;;;5.47;2.72;;;;;;;31.52;30.90;98804.22;5114261;28;20035;-50
2021/08/24 11:24:45;;;;;;;8.30;2.88;;;;;;;31.57;31.02;98793.16;5114312;28;20032;-50
2021/08/24 11:27:44;;;;;;;11.07;2.92;;;;;;;31.28;31.81;98796.78;5095948;28;20035;-51
2021/08/24 11:30:38;;;;;;;8.57;2.30;;;;;;;30.98;32.37;98788.00;5114162;28;20118;-51
2021/08/24 11:33:24;;;;;;;10.23;3.08;;;;;;;30.97;32.39;98784.50;5114163;28;20023;-50
2021/08/24 11:36:18;;;;;;;6.72;2.63;;;;;;;31.12;32.07;98795.84;5095720;28;20503;-51
2021/08/24 11:38:52;;;;;;;11.75;3.42;;;;;;;31.05;32.07;98804.53;5095472;28;20060;-50
2021/08/24 11:41:22;;;;;;;15.27;3.28;;;;;;;30.87;32.82;98793.03;5095495;28;20032;-50
2021/08/24 11:44:12;;;;;;;23.08;4.47;;;;;;;30.93;33.09;98793.63;5113796;28;20019;-50
2021/08/24 11:46:47;;;;;;;20.30;3.95;;;;;;;31.31;32.27;98792.63;5113814;28;20051;-50
2021/08/24 11:49:25;;;;;;;11.68;2.63;;;;;;;31.44;31.79;98796.94;5113731;28;20027;-50
2021/08/24 11:52:06;;;;;;;5.85;2.90;;;;;;;31.51;31.45;98788.28;5113741;28;20031;-50